Coastal Carolina Regional Airport New Bern US
ICAO: KEWN
IATA: EWN
Category: Medium
Scheduled Services: Yes

Elevation: 18 ft
TransAlt. 18000 ft.

Airport Communications:
CHERRY POINT APP/DEP:119.35
ASOS:118.525
CLNC DEL:120.525
CTAF:124.25
GND:121.7
RALEIGH RDO:122.2
NEW BERN TWR:124.25

KEWN Zoom In..

If you have problems with the map follow the link
https://www.worldairports.se/pages/airport.php?
ICAO=KEWN

Runways:

(A) RW 04 length 6453 ft width 150 ft
ILS 110.50 / hdg 39

(B) RW 14 length 4000 ft width 150 ft
---- / hdg 136

(C) RW 22 length 6453 ft width 150 ft
---- / hdg 219

(D) RW 32 length 4000 ft width 150 ft
---- / hdg 316

Location; KEWN
Day. 18 / Time. 20.54 Zulu
* Altimeter: 30.07
* Temperature: 14° c. 57.2°f.
* Wind from: 020° Speed 04 kn.
Dewpoint: 07° c.
Visibility: 10 Statute Miles.
Clouds: Few 3700 ft.

KEWN 182054Z 02004KT 10SM FEW037 14/07 A3007 RMK AO2 SLP183 T01440072 55009


Wind From 020°
Speed 04 kn.

 
 
jpsmedia.com for Web Design worldairports.se 2019   terms of use